Elmira, Michigan
Current Conditions -  °F | °C
As of 2:53 PM on Friday 21 Nov 2014 (Local Time) from KGLR Reporting Station
Overcast Overcast  
Wind Chill:   Ceiling: 11000
Heat Index: 21°   Visibility: 10mi
Dew Point: 12°   Wind: 17mph
Humidity: 68%   Direction: 230°SW
Pressure: 30.26"   Gusts: NA
Location:  45.06°N, 84.86°W
Report Text: KGLR 211953Z AUTO 23015KT 10SM FEW026 OVC110 M06/M11 A3026 RMK AO2 SLP271 T10611111
Loading
Personal Weather Stations






























Interactive Weather Map New forecast layout! Learn more

10-Day Weather Forecast

Advertisements
Track Severe Weather on mobile